Time;durP1;ratioP1;P1;durP2;ratioP2;P2;SDS_P1;SDS_P2;PMS_P1;PMS_P2;Temp;Humidity;BMP_temperature;BMP_pressure;BME280_temperature;BME280_humidity;BME280_pressure;Samples;Min_cycle;Max_cycle;Signal;HPM_P1;HPM_P2
2022/02/14 00:01:48;;;;;;;5.43;3.23;;;;;;;;;;6130394;23;20573;-87
2022/02/14 00:04:52;;;;;;;7.93;3.50;;;;;;;;;;6131385;23;21085;-87
2022/02/14 00:07:56;;;;;;;6.70;3.80;;;;;;;;;;6165079;23;20513;-87
2022/02/14 00:11:00;;;;;;;5.67;3.63;;;;;;;;;;6131195;23;20513;-86
2022/02/14 00:14:04;;;;;;;5.87;3.87;;;;;;;;;;6148469;23;20505;-87
2022/02/14 00:17:08;;;;;;;4.80;2.87;;;;;;;;;;6133180;23;20498;-86
2022/02/14 00:20:12;;;;;;;6.83;3.33;;;;;;;;;;6133304;23;21062;-86
2022/02/14 00:23:16;;;;;;;6.03;3.40;;;;;;;;;;6142565;23;20576;-86
2022/02/14 00:26:21;;;;;;;6.27;3.90;;;;;;;;;;6149603;23;20569;-87
2022/02/14 00:29:25;;;;;;;5.70;3.90;;;;;;;;;;6139936;23;20552;-87
2022/02/14 00:32:30;;;;;;;6.67;4.03;;;;;;;;;;6128867;23;20572;-87
2022/02/14 00:35:36;;;;;;;5.27;3.13;;;;;;;;;;6149906;23;20509;-86
2022/02/14 00:38:40;;;;;;;6.53;3.80;;;;;;;;;;6133155;23;20506;-87
2022/02/14 00:41:45;;;;;;;5.67;3.50;;;;;;;;;;6129225;23;20560;-86
2022/02/14 00:44:50;;;;;;;5.90;3.43;;;;;;;;;;6107387;23;20600;-87
2022/02/14 00:47:54;;;;;;;4.67;3.57;;;;;;;;;;6150686;23;20502;-87
2022/02/14 00:50:58;;;;;;;6.17;3.90;;;;;;;;;;6133721;23;20506;-87
2022/02/14 00:54:03;;;;;;;6.27;3.63;;;;;;;;;;6133463;23;20517;-86
2022/02/14 00:57:07;;;;;;;5.93;3.50;;;;;;;;;;6133436;23;20510;-87
2022/02/14 01:00:14;;;;;;;6.07;3.63;;;;;;;;;;6150367;23;21014;-87
2022/02/14 01:03:18;;;;;;;5.63;3.83;;;;;;;;;;6109324;23;20573;-86
2022/02/14 01:06:25;;;;;;;5.70;3.67;;;;;;;;;;6133017;23;20577;-87
2022/02/14 01:09:29;;;;;;;5.67;3.60;;;;;;;;;;6116866;23;20505;-87
2022/02/14 01:12:33;;;;;;;7.53;3.67;;;;;;;;;;6111706;23;20569;-86
2022/02/14 01:15:37;;;;;;;6.33;3.60;;;;;;;;;;6116065;23;20513;-86
2022/02/14 01:18:41;;;;;;;8.23;3.50;;;;;;;;;;6132823;23;20513;-87
2022/02/14 01:21:45;;;;;;;5.20;3.53;;;;;;;;;;6131661;23;20502;-87
2022/02/14 01:24:50;;;;;;;5.87;3.60;;;;;;;;;;6132001;23;20514;-86
2022/02/14 01:27:53;;;;;;;6.73;3.23;;;;;;;;;;6132087;23;20505;-86
2022/02/14 01:30:58;;;;;;;7.53;3.30;;;;;;;;;;6132421;23;20505;-87
2022/02/14 01:34:02;;;;;;;5.10;3.13;;;;;;;;;;6132323;23;20510;-87
2022/02/14 01:37:06;;;;;;;4.30;3.10;;;;;;;;;;6115902;23;20506;-86
2022/02/14 01:40:12;;;;;;;4.87;3.10;;;;;;;;;;6115549;23;20501;-86
2022/02/14 01:43:16;;;;;;;4.93;3.00;;;;;;;;;;6114779;23;20597;-86
2022/02/14 01:46:20;;;;;;;4.77;2.73;;;;;;;;;;6149006;23;20561;-86
2022/02/14 01:49:24;;;;;;;6.03;2.43;;;;;;;;;;6121935;23;20553;-86
2022/02/14 01:52:30;;;;;;;4.53;3.00;;;;;;;;;;6122195;23;20577;-86
2022/02/14 01:55:35;;;;;;;5.73;3.10;;;;;;;;;;6148849;23;20514;-87
2022/02/14 01:58:38;;;;;;;5.70;3.00;;;;;;;;;;6148991;23;20501;-86
2022/02/14 02:01:42;;;;;;;3.57;2.63;;;;;;;;;;6130998;23;20505;-86
2022/02/14 02:04:46;;;;;;;4.43;2.93;;;;;;;;;;6131641;23;20513;-86
2022/02/14 02:07:54;;;;;;;5.17;3.13;;;;;;;;;;6131990;23;21058;-86
2022/02/14 02:12:22;;;;;;;6.67;3.07;;;;;;;;;;6132312;23;20502;-86
2022/02/14 02:14:24;;;;;;;3.30;2.40;;;;;;;;;;6157243;23;20565;-86
2022/02/14 02:17:38;;;;;;;5.27;2.77;;;;;;;;;;6132777;23;21034;-86
2022/02/14 02:20:42;;;;;;;3.60;2.60;;;;;;;;;;6149141;23;20506;-86
2022/02/14 02:23:47;;;;;;;4.83;2.50;;;;;;;;;;6139178;23;20572;-86
2022/02/14 02:27:04;;;;;;;4.13;2.77;;;;;;;;;;6148639;23;20557;-86
2022/02/14 02:30:11;;;;;;;4.67;2.70;;;;;;;;;;6165646;23;20501;-86
2022/02/14 02:33:15;;;;;;;4.40;2.57;;;;;;;;;;6140849;23;20573;-86
2022/02/14 02:36:19;;;;;;;5.53;2.70;;;;;;;;;;6132071;23;20501;-86
2022/02/14 02:39:24;;;;;;;3.17;2.40;;;;;;;;;;6139144;23;20552;-86
2022/02/14 02:42:29;;;;;;;4.83;2.60;;;;;;;;;;6121759;23;20622;-86
2022/02/14 02:45:33;;;;;;;4.77;2.50;;;;;;;;;;6131694;23;20557;-86
2022/02/14 02:48:37;;;;;;;3.97;2.23;;;;;;;;;;6131972;23;20498;-86
2022/02/14 02:51:44;;;;;;;4.30;2.90;;;;;;;;;;6114054;23;20505;-86
2022/02/14 02:54:50;;;;;;;3.43;2.63;;;;;;;;;;6114536;23;20514;-86
2022/02/14 02:57:54;;;;;;;6.40;2.60;;;;;;;;;;6115039;23;20813;-86
2022/02/14 03:00:59;;;;;;;6.37;2.80;;;;;;;;;;6114878;23;20513;-86
2022/02/14 03:04:04;;;;;;;3.10;2.20;;;;;;;;;;6114869;23;20517;-86
2022/02/14 03:07:08;;;;;;;4.40;2.37;;;;;;;;;;6121755;23;20908;-86
2022/02/14 03:10:12;;;;;;;3.07;2.13;;;;;;;;;;6114107;23;20829;-87
2022/02/14 03:13:17;;;;;;;3.87;2.10;;;;;;;;;;6123794;23;20576;-87
2022/02/14 03:16:21;;;;;;;2.67;2.10;;;;;;;;;;6115093;23;20497;-86
2022/02/14 03:19:25;;;;;;;6.03;2.40;;;;;;;;;;6131131;23;20518;-86
2022/02/14 03:22:29;;;;;;;3.00;1.93;;;;;;;;;;6127062;23;20568;-87
2022/02/14 03:25:33;;;;;;;4.27;2.37;;;;;;;;;;6105629;23;20596;-86
2022/02/14 03:28:38;;;;;;;2.53;1.90;;;;;;;;;;6138278;23;20560;-86
2022/02/14 03:31:42;;;;;;;5.83;2.20;;;;;;;;;;6121403;23;20549;-86
2022/02/14 03:34:46;;;;;;;6.00;2.50;;;;;;;;;;6115060;23;20810;-86
2022/02/14 03:37:50;;;;;;;2.87;2.03;;;;;;;;;;6131506;23;20498;-86
2022/02/14 03:40:54;;;;;;;4.23;2.30;;;;;;;;;;6104411;23;21093;-86
2022/02/14 03:43:59;;;;;;;3.97;2.50;;;;;;;;;;6198129;23;20635;-85
2022/02/14 03:47:03;;;;;;;7.27;2.30;;;;;;;;;;6180497;23;20803;-85
2022/02/14 03:50:07;;;;;;;2.27;1.70;;;;;;;;;;6181140;23;20547;-85
2022/02/14 03:53:12;;;;;;;4.30;2.20;;;;;;;;;;6174597;23;21099;-85
2022/02/14 03:56:16;;;;;;;3.60;2.17;;;;;;;;;;6169406;23;20548;-85
2022/02/14 03:59:20;;;;;;;3.60;2.20;;;;;;;;;;6203962;23;20560;-85
2022/02/14 04:02:24;;;;;;;4.93;2.50;;;;;;;;;;6177948;23;20572;-85
2022/02/14 04:05:28;;;;;;;5.43;2.10;;;;;;;;;;6152020;23;20548;-85
2022/02/14 04:08:32;;;;;;;3.10;2.20;;;;;;;;;;6169661;23;20556;-85
2022/02/14 04:11:36;;;;;;;3.37;1.90;;;;;;;;;;6197121;23;20512;-85
2022/02/14 04:14:40;;;;;;;3.13;2.00;;;;;;;;;;6196604;23;20504;-85
2022/02/14 04:17:45;;;;;;;3.27;1.87;;;;;;;;;;6162480;23;20802;-85
2022/02/14 04:20:48;;;;;;;3.07;2.10;;;;;;;;;;6178806;23;20508;-85
2022/02/14 04:23:53;;;;;;;2.77;2.07;;;;;;;;;;6154147;23;20576;-85
2022/02/14 04:26:57;;;;;;;3.20;2.40;;;;;;;;;;6178880;23;20564;-85
2022/02/14 04:30:02;;;;;;;3.30;2.10;;;;;;;;;;6178743;23;20512;-85
2022/02/14 04:33:06;;;;;;;2.23;1.63;;;;;;;;;;6174538;23;20571;-85
2022/02/14 04:36:14;;;;;;;5.23;2.00;;;;;;;;;;6178844;23;20512;-85
2022/02/14 04:39:19;;;;;;;2.40;1.43;;;;;;;;;;6161835;23;20516;-85
2022/02/14 04:42:23;;;;;;;3.70;2.00;;;;;;;;;;6159922;23;20571;-85
2022/02/14 04:45:28;;;;;;;2.73;1.63;;;;;;;;;;6161829;23;20504;-85
2022/02/14 04:48:32;;;;;;;3.07;2.10;;;;;;;;;;6161888;23;20505;-85
2022/02/14 04:51:37;;;;;;;3.00;1.77;;;;;;;;;;6162069;23;20520;-85
2022/02/14 04:54:43;;;;;;;2.60;1.73;;;;;;;;;;6152150;23;21096;-85
2022/02/14 04:57:47;;;;;;;3.33;1.97;;;;;;;;;;6168886;23;20547;-85
2022/02/14 05:00:51;;;;;;;3.57;1.93;;;;;;;;;;6144895;23;20500;-85
2022/02/14 05:03:55;;;;;;;2.97;1.87;;;;;;;;;;6137030;23;20580;-85
2022/02/14 05:06:59;;;;;;;4.07;1.70;;;;;;;;;;6161739;23;20572;-85
2022/02/14 05:10:03;;;;;;;3.07;1.47;;;;;;;;;;6178149;23;20525;-84
2022/02/14 05:13:08;;;;;;;2.50;1.40;;;;;;;;;;6168884;23;20890;-85
2022/02/14 05:16:12;;;;;;;4.80;2.07;;;;;;;;;;6144576;23;20512;-85
2022/02/14 05:19:16;;;;;;;3.13;1.70;;;;;;;;;;6145165;23;20505;-85
2022/02/14 05:22:21;;;;;;;2.40;1.40;;;;;;;;;;6143408;23;20513;-85
2022/02/14 05:25:25;;;;;;;3.70;1.63;;;;;;;;;;6161520;23;20521;-85
2022/02/14 05:28:29;;;;;;;2.80;1.60;;;;;;;;;;6145005;23;20501;-85
2022/02/14 05:31:33;;;;;;;3.27;1.67;;;;;;;;;;6144523;23;20516;-86
2022/02/14 05:34:37;;;;;;;2.87;1.83;;;;;;;;;;6195616;23;20517;-85
2022/02/14 05:37:41;;;;;;;2.73;1.57;;;;;;;;;;6134711;23;20870;-85
2022/02/14 05:40:45;;;;;;;2.63;1.47;;;;;;;;;;6178207;23;20516;-85
2022/02/14 05:43:52;;;;;;;2.13;1.53;;;;;;;;;;6162938;23;20591;-85
2022/02/14 05:46:57;;;;;;;2.73;1.63;;;;;;;;;;6161920;23;20863;-85
2022/02/14 05:50:02;;;;;;;1.57;1.33;;;;;;;;;;6161121;23;20826;-84
2022/02/14 05:53:07;;;;;;;2.30;1.70;;;;;;;;;;6190810;23;20583;-85
2022/02/14 05:56:11;;;;;;;24.07;13.50;;;;;;;;;;6161223;23;20517;-85
2022/02/14 05:59:15;;;;;;;12.67;6.87;;;;;;;;;;6177990;23;20543;-85
2022/02/14 06:02:19;;;;;;;6.97;4.20;;;;;;;;;;6176906;23;20528;-85
2022/02/14 06:05:25;;;;;;;5.93;3.33;;;;;;;;;;6195630;23;20505;-85
2022/02/14 06:08:29;;;;;;;6.00;3.17;;;;;;;;;;6168232;23;20560;-84
2022/02/14 06:11:33;;;;;;;3.47;2.60;;;;;;;;;;6169038;23;20559;-85
2022/02/14 06:14:37;;;;;;;5.03;1.93;;;;;;;;;;6185390;23;20548;-85
2022/02/14 06:17:41;;;;;;;3.93;2.10;;;;;;;;;;6161468;23;20500;-85
2022/02/14 06:20:45;;;;;;;4.30;1.80;;;;;;;;;;6185601;23;20560;-85
2022/02/14 06:23:50;;;;;;;2.90;1.50;;;;;;;;;;6169011;23;20583;-85
2022/02/14 06:26:54;;;;;;;4.23;1.60;;;;;;;;;;6185023;23;20604;-85
2022/02/14 06:29:58;;;;;;;2.73;1.97;;;;;;;;;;6194787;23;20826;-85
2022/02/14 06:33:02;;;;;;;2.50;1.80;;;;;;;;;;6190600;23;21100;-85
2022/02/14 06:36:07;;;;;;;2.87;1.60;;;;;;;;;;6212657;23;20505;-85
2022/02/14 06:39:11;;;;;;;3.13;2.07;;;;;;;;;;6160708;23;20513;-85
2022/02/14 06:42:15;;;;;;;3.23;2.20;;;;;;;;;;6158510;23;20568;-85
2022/02/14 06:45:19;;;;;;;4.13;2.40;;;;;;;;;;6160563;23;20512;-85
2022/02/14 06:48:23;;;;;;;8.23;4.00;;;;;;;;;;6150444;23;20604;-84
2022/02/14 06:51:28;;;;;;;5.23;3.30;;;;;;;;;;6177683;23;20500;-85
2022/02/14 06:54:35;;;;;;;8.07;5.17;;;;;;;;;;6168562;23;20882;-86
2022/02/14 06:57:40;;;;;;;6.20;3.60;;;;;;;;;;6151693;23;20552;-88
2022/02/14 07:00:44;;;;;;;4.77;2.87;;;;;;;;;;6177510;23;20516;-87
2022/02/14 07:03:48;;;;;;;3.97;2.40;;;;;;;;;;6153155;23;20576;-87
2022/02/14 07:06:52;;;;;;;3.60;2.57;;;;;;;;;;6160851;23;20556;-88
2022/02/14 07:09:57;;;;;;;2.17;1.73;;;;;;;;;;6143499;23;20521;-87
2022/02/14 07:13:01;;;;;;;3.27;1.80;;;;;;;;;;6156415;23;20571;-85
2022/02/14 07:16:05;;;;;;;8.13;2.67;;;;;;;;;;6161343;23;21017;-85
2022/02/14 07:19:10;;;;;;;6.87;2.20;;;;;;;;;;6160325;23;20513;-87
2022/02/14 07:22:14;;;;;;;8.23;4.50;;;;;;;;;;6167156;23;20548;-87
2022/02/14 07:25:18;;;;;;;7.57;3.50;;;;;;;;;;6145579;23;20509;-87
2022/02/14 07:28:23;;;;;;;7.63;4.30;;;;;;;;;;6180081;23;20556;-87
2022/02/14 07:31:27;;;;;;;5.83;3.40;;;;;;;;;;6179853;23;20504;-87
2022/02/14 07:34:32;;;;;;;6.47;3.33;;;;;;;;;;6162460;23;20504;-87
2022/02/14 07:37:37;;;;;;;7.03;3.43;;;;;;;;;;6145506;23;20509;-87
2022/02/14 07:40:41;;;;;;;10.23;3.13;;;;;;;;;;6152293;23;20559;-85
2022/02/14 07:43:45;;;;;;;5.00;3.20;;;;;;;;;;6160464;23;20583;-85
2022/02/14 07:46:51;;;;;;;5.67;3.80;;;;;;;;;;6162642;23;20559;-84
2022/02/14 07:49:55;;;;;;;4.47;3.50;;;;;;;;;;6196317;23;20517;-85
2022/02/14 07:53:00;;;;;;;5.87;3.57;;;;;;;;;;6158557;23;20883;-86
2022/02/14 07:56:06;;;;;;;6.37;4.30;;;;;;;;;;6186707;23;20543;-86
2022/02/14 07:59:10;;;;;;;9.83;5.13;;;;;;;;;;6169226;23;20552;-86
2022/02/14 08:02:16;;;;;;;20.03;8.50;;;;;;;;;;6169778;23;20560;-86
2022/02/14 08:05:21;;;;;;;14.07;5.30;;;;;;;;;;6179730;23;20505;-85
2022/02/14 08:08:24;;;;;;;9.90;5.20;;;;;;;;;;6179357;23;20564;-86
2022/02/14 08:11:30;;;;;;;12.07;5.00;;;;;;;;;;6162583;23;20516;-86
2022/02/14 08:14:35;;;;;;;11.67;5.63;;;;;;;;;;6196267;23;20799;-86
2022/02/14 08:17:39;;;;;;;7.47;4.10;;;;;;;;;;6179285;23;20513;-86
2022/02/14 08:20:43;;;;;;;5.07;3.93;;;;;;;;;;6152468;23;20555;-85
2022/02/14 08:23:47;;;;;;;9.60;4.93;;;;;;;;;;6169283;23;20587;-85
2022/02/14 08:26:51;;;;;;;13.40;4.33;;;;;;;;;;6179018;23;20520;-84
2022/02/14 08:29:57;;;;;;;10.03;5.73;;;;;;;;;;6196252;23;20811;-84
2022/02/14 08:33:02;;;;;;;7.67;3.93;;;;;;;;;;6191890;23;20575;-84
2022/02/14 08:36:06;;;;;;;8.63;4.30;;;;;;;;;;6186285;23;20559;-84
2022/02/14 08:39:10;;;;;;;12.57;4.33;;;;;;;;;;6186322;23;20552;-84
2022/02/14 08:42:14;;;;;;;9.57;4.20;;;;;;;;;;6185810;23;20551;-85
2022/02/14 08:45:18;;;;;;;9.43;3.80;;;;;;;;;;6145313;23;20509;-85
2022/02/14 08:48:22;;;;;;;9.13;5.03;;;;;;;;;;6162089;23;20556;-85
2022/02/14 08:51:27;;;;;;;17.13;9.40;;;;;;;;;;6178848;23;20520;-85
2022/02/14 08:54:31;;;;;;;40.07;26.40;;;;;;;;;;6161676;23;20513;-84
2022/02/14 08:57:35;;;;;;;21.83;15.03;;;;;;;;;;6162620;23;20507;-84
2022/02/14 09:00:39;;;;;;;19.30;11.67;;;;;;;;;;6161230;23;20520;-84
2022/02/14 09:03:44;;;;;;;26.07;15.10;;;;;;;;;;6154697;23;20195;-85
2022/02/14 09:06:48;;;;;;;10.27;5.67;;;;;;;;;;6161565;23;20164;-85
2022/02/14 09:09:52;;;;;;;40.27;23.23;;;;;;;;;;6161513;23;20472;-85
2022/02/14 09:12:56;;;;;;;11.57;5.80;;;;;;;;;;6168627;23;20201;-85
2022/02/14 09:16:03;;;;;;;14.50;7.27;;;;;;;;;;6178912;23;20493;-85
2022/02/14 09:19:07;;;;;;;6.10;4.17;;;;;;;;;;6196256;23;20153;-85
2022/02/14 09:22:12;;;;;;;13.03;5.53;;;;;;;;;;6144253;23;20157;-84
2022/02/14 09:25:16;;;;;;;5.73;2.80;;;;;;;;;;6145214;23;20181;-84
2022/02/14 09:28:21;;;;;;;4.60;2.23;;;;;;;;;;6161179;23;20487;-85
2022/02/14 09:31:25;;;;;;;3.40;1.87;;;;;;;;;;6161296;23;20157;-85
2022/02/14 09:34:29;;;;;;;3.87;2.30;;;;;;;;;;6168420;23;20172;-84
2022/02/14 09:37:34;;;;;;;8.17;2.17;;;;;;;;;;6178782;23;20153;-84
2022/02/14 09:40:38;;;;;;;4.90;2.30;;;;;;;;;;6151409;23;20617;-85
2022/02/14 09:43:47;;;;;;;7.77;2.07;;;;;;;;;;6176277;23;20200;-85
2022/02/14 09:46:51;;;;;;;3.50;2.20;;;;;;;;;;6160619;23;20158;-84
2022/02/14 09:49:56;;;;;;;3.50;2.33;;;;;;;;;;6185157;23;20169;-85
2022/02/14 09:53:04;;;;;;;5.50;2.23;;;;;;;;;;6157004;23;20189;-85
2022/02/14 09:56:09;;;;;;;3.53;2.27;;;;;;;;;;6161351;23;20157;-85
2022/02/14 09:59:14;;;;;;;4.53;2.33;;;;;;;;;;6177933;23;20154;-85
2022/02/14 10:02:25;;;;;;;4.37;2.80;;;;;;;;;;6194437;23;20590;-85
2022/02/14 10:05:31;;;;;;;3.87;2.70;;;;;;;;;;6178471;23;20157;-88
2022/02/14 10:08:35;;;;;;;5.07;2.80;;;;;;;;;;6150918;23;20192;-85
2022/02/14 10:12:05;;;;;;;3.50;2.07;;;;;;;;;;6195152;23;20156;-88
2022/02/14 10:15:10;;;;;;;3.03;2.13;;;;;;;;;;6178135;23;20153;-86
2022/02/14 10:18:29;;;;;;;8.43;3.20;;;;;;;;;;6194865;23;20467;-88
2022/02/14 10:21:35;;;;;;;5.73;2.17;;;;;;;;;;6195140;23;20607;-88
2022/02/14 10:24:43;;;;;;;6.47;2.30;;;;;;;;;;6178790;23;20149;-87
2022/02/14 10:27:48;;;;;;;3.90;2.67;;;;;;;;;;6195740;23;20181;-86
2022/02/14 10:31:03;;;;;;;5.40;2.83;;;;;;;;;;6160961;23;20153;-86
2022/02/14 10:34:08;;;;;;;15.57;3.10;;;;;;;;;;6169253;23;20196;-85
2022/02/14 10:37:13;;;;;;;6.37;2.97;;;;;;;;;;6178325;23;20586;-85
2022/02/14 10:40:35;;;;;;;3.23;1.80;;;;;;;;;;6177499;23;20157;-85
2022/02/14 10:43:40;;;;;;;7.23;2.13;;;;;;;;;;6188630;23;20197;-85
2022/02/14 10:46:45;;;;;;;6.17;2.20;;;;;;;;;;6177727;23;20153;-85
2022/02/14 10:50:15;;;;;;;3.27;2.00;;;;;;;;;;6143989;23;20180;-87
2022/02/14 10:53:19;;;;;;;5.80;1.90;;;;;;;;;;6155697;23;20193;-86
2022/02/14 10:56:25;;;;;;;4.43;2.20;;;;;;;;;;6162831;23;20157;-86
2022/02/14 10:59:29;;;;;;;3.83;2.00;;;;;;;;;;6143481;23;20594;-86
2022/02/14 11:02:34;;;;;;;6.23;2.40;;;;;;;;;;6167338;23;20649;-86
2022/02/14 11:05:38;;;;;;;5.33;2.30;;;;;;;;;;6178116;23;20597;-86
2022/02/14 11:08:43;;;;;;;3.30;1.70;;;;;;;;;;6160675;23;20180;-86
2022/02/14 11:11:49;;;;;;;6.93;2.47;;;;;;;;;;6160543;23;20164;-87
2022/02/14 11:14:55;;;;;;;4.00;2.03;;;;;;;;;;6161047;23;20157;-87
2022/02/14 11:17:59;;;;;;;3.23;1.97;;;;;;;;;;6151553;23;20169;-87
2022/02/14 11:21:03;;;;;;;4.47;2.40;;;;;;;;;;6160552;23;20157;-87
2022/02/14 11:24:17;;;;;;;3.57;1.87;;;;;;;;;;6151921;23;20197;-87
2022/02/14 11:27:26;;;;;;;3.20;2.03;;;;;;;;;;6160801;23;20153;-87
2022/02/14 11:30:30;;;;;;;3.33;2.10;;;;;;;;;;6177381;23;20152;-87
2022/02/14 11:33:36;;;;;;;3.00;2.17;;;;;;;;;;6137186;23;20188;-87
2022/02/14 11:36:39;;;;;;;6.97;2.30;;;;;;;;;;6177721;23;20157;-86
2022/02/14 11:39:44;;;;;;;4.90;2.47;;;;;;;;;;6177745;23;20149;-86
2022/02/14 11:43:10;;;;;;;7.50;2.60;;;;;;;;;;6150373;23;20204;-86
2022/02/14 11:46:19;;;;;;;4.47;2.37;;;;;;;;;;6160712;23;20153;-86
2022/02/14 11:49:39;;;;;;;5.13;2.57;;;;;;;;;;6151568;23;20196;-87
2022/02/14 11:52:45;;;;;;;3.70;2.37;;;;;;;;;;6157517;23;20193;-87
2022/02/14 11:55:49;;;;;;;3.33;2.40;;;;;;;;;;6177750;23;20157;-86
2022/02/14 11:59:17;;;;;;;7.50;2.77;;;;;;;;;;6177580;23;20153;-86
2022/02/14 12:02:28;;;;;;;4.80;2.90;;;;;;;;;;6141987;23;20157;-86
2022/02/14 12:05:59;;;;;;;9.67;2.70;;;;;;;;;;6177109;23;20157;-87
2022/02/14 12:09:07;;;;;;;4.60;2.97;;;;;;;;;;6167991;23;20193;-85
2022/02/14 12:12:10;;;;;;;6.90;2.30;;;;;;;;;;6144972;23;20157;-86
2022/02/14 12:22:02;;;;;;;8.03;2.83;;;;;;;;;;6196291;23;20157;-85
2022/02/14 12:25:09;;;;;;;5.83;2.47;;;;;;;;;;6178800;23;20153;-85
2022/02/14 12:28:13;;;;;;;4.47;2.37;;;;;;;;;;6178957;23;20590;-85
2022/02/14 12:31:18;;;;;;;7.73;2.33;;;;;;;;;;6179541;23;20241;-85
2022/02/14 12:34:30;;;;;;;4.13;2.40;;;;;;;;;;6135220;23;20192;-86
2022/02/14 12:37:36;;;;;;;7.40;2.43;;;;;;;;;;6145051;23;20157;-86
2022/02/14 12:40:51;;;;;;;6.53;2.40;;;;;;;;;;6162499;23;20153;-85
2022/02/14 12:43:55;;;;;;;3.17;2.33;;;;;;;;;;6163114;23;20197;-85
2022/02/14 12:46:59;;;;;;;7.33;2.53;;;;;;;;;;6152130;23;20172;-85
2022/02/14 12:50:16;;;;;;;3.70;2.37;;;;;;;;;;6203105;23;20196;-85
2022/02/14 12:53:21;;;;;;;6.93;2.40;;;;;;;;;;6191128;23;20188;-85
2022/02/14 12:56:27;;;;;;;3.63;2.50;;;;;;;;;;6162214;23;20153;-85
2022/02/14 12:59:34;;;;;;;7.00;2.87;;;;;;;;;;6178736;23;20153;-85
2022/02/14 13:02:39;;;;;;;4.50;2.57;;;;;;;;;;6176544;23;20192;-85
2022/02/14 13:05:51;;;;;;;3.93;2.60;;;;;;;;;;6178809;23;20157;-85
2022/02/14 13:08:55;;;;;;;6.53;2.90;;;;;;;;;;6178571;23;20594;-85
2022/02/14 13:12:02;;;;;;;10.27;3.23;;;;;;;;;;6152614;23;20169;-85
2022/02/14 13:15:08;;;;;;;7.87;3.00;;;;;;;;;;6168891;23;20487;-85
2022/02/14 13:18:12;;;;;;;6.70;2.77;;;;;;;;;;6161785;23;20157;-85
2022/02/14 13:21:21;;;;;;;8.27;3.17;;;;;;;;;;6185943;23;20168;-86
2022/02/14 13:24:28;;;;;;;5.70;2.93;;;;;;;;;;6185850;23;20192;-86
2022/02/14 13:27:34;;;;;;;7.00;3.67;;;;;;;;;;6178899;23;20157;-86
2022/02/14 13:30:42;;;;;;;4.47;3.23;;;;;;;;;;6195949;23;20161;-85
2022/02/14 13:33:48;;;;;;;6.50;3.20;;;;;;;;;;6152066;23;20192;-85
2022/02/14 13:36:55;;;;;;;6.77;3.33;;;;;;;;;;6195549;23;20152;-86
2022/02/14 13:39:59;;;;;;;4.80;3.50;;;;;;;;;;6161529;23;20460;-86
2022/02/14 13:43:06;;;;;;;7.60;3.80;;;;;;;;;;6174392;23;20511;-85
2022/02/14 13:46:12;;;;;;;7.37;3.80;;;;;;;;;;6178504;23;20157;-85
2022/02/14 13:49:37;;;;;;;9.60;5.00;;;;;;;;;;6161471;23;20629;-86
2022/02/14 13:52:42;;;;;;;10.80;4.23;;;;;;;;;;6192719;23;20188;-85
2022/02/14 13:56:11;;;;;;;7.50;3.97;;;;;;;;;;6144295;23;20153;-85
2022/02/14 13:59:18;;;;;;;6.40;3.80;;;;;;;;;;6161417;23;20464;-85
2022/02/14 14:02:24;;;;;;;8.87;3.53;;;;;;;;;;6176957;23;20196;-85
2022/02/14 14:05:41;;;;;;;5.80;3.27;;;;;;;;;;6144356;23;20602;-86
2022/02/14 14:08:46;;;;;;;5.83;3.17;;;;;;;;;;6179026;23;20630;-86
2022/02/14 14:11:52;;;;;;;6.30;3.87;;;;;;;;;;6161298;23;20157;-86
2022/02/14 14:14:58;;;;;;;6.33;3.37;;;;;;;;;;6161258;23;20157;-86
2022/02/14 14:18:04;;;;;;;5.73;3.40;;;;;;;;;;6178245;23;20152;-86
2022/02/14 14:21:11;;;;;;;6.73;3.43;;;;;;;;;;6161542;23;20149;-86
2022/02/14 14:24:16;;;;;;;7.23;3.80;;;;;;;;;;6152085;23;20189;-85
2022/02/14 14:27:20;;;;;;;4.37;3.17;;;;;;;;;;6144529;23;20157;-86
2022/02/14 14:30:24;;;;;;;4.80;3.27;;;;;;;;;;6150931;23;20189;-86
2022/02/14 14:33:30;;;;;;;4.20;3.00;;;;;;;;;;6155091;23;20357;-86
2022/02/14 14:36:34;;;;;;;5.83;3.50;;;;;;;;;;6161308;23;20602;-86
2022/02/14 14:39:38;;;;;;;6.57;3.83;;;;;;;;;;6160749;23;20149;-86
2022/02/14 14:42:42;;;;;;;4.83;3.30;;;;;;;;;;6157584;23;20200;-86
2022/02/14 14:45:46;;;;;;;6.03;3.37;;;;;;;;;;6144630;23;20598;-87
2022/02/14 14:48:50;;;;;;;8.77;3.57;;;;;;;;;;6150843;23;20479;-86
2022/02/14 14:51:55;;;;;;;7.47;3.40;;;;;;;;;;6161265;23;20153;-85
2022/02/14 14:54:59;;;;;;;4.87;3.30;;;;;;;;;;6160889;23;20157;-86
2022/02/14 14:58:31;;;;;;;8.57;5.00;;;;;;;;;;6143411;23;20157;-88
2022/02/14 15:02:06;;;;;;;7.90;4.23;;;;;;;;;;6184066;23;20157;-86
2022/02/14 15:05:10;;;;;;;5.93;3.60;;;;;;;;;;6160840;23;20149;-86
2022/02/14 15:08:15;;;;;;;8.50;4.17;;;;;;;;;;6177712;23;20157;-86
2022/02/14 15:11:19;;;;;;;8.27;3.27;;;;;;;;;;6196252;23;20160;-86
2022/02/14 15:14:23;;;;;;;7.87;3.67;;;;;;;;;;6167524;23;20188;-87
2022/02/14 15:17:27;;;;;;;4.93;3.10;;;;;;;;;;6160424;23;20157;-86
2022/02/14 15:20:32;;;;;;;4.47;3.23;;;;;;;;;;6177632;23;20153;-86
2022/02/14 15:23:37;;;;;;;7.20;3.67;;;;;;;;;;6154275;23;20192;-85
2022/02/14 15:26:45;;;;;;;5.63;3.93;;;;;;;;;;6169063;23;20168;-85
2022/02/14 15:29:49;;;;;;;8.50;4.07;;;;;;;;;;6133340;23;20197;-86
2022/02/14 15:32:56;;;;;;;6.03;4.13;;;;;;;;;;6134736;23;20646;-86
2022/02/14 15:36:01;;;;;;;7.43;4.03;;;;;;;;;;6160305;23;20157;-86
2022/02/14 15:39:05;;;;;;;8.50;4.03;;;;;;;;;;6143328;23;20157;-86
2022/02/14 15:42:10;;;;;;;9.27;4.57;;;;;;;;;;6175681;23;20475;-86
2022/02/14 15:45:14;;;;;;;7.33;5.20;;;;;;;;;;6178951;23;20161;-85
2022/02/14 15:48:18;;;;;;;8.73;4.90;;;;;;;;;;6135934;23;20173;-86
2022/02/14 15:51:23;;;;;;;6.30;4.00;;;;;;;;;;6162154;23;20157;-85
2022/02/14 15:54:27;;;;;;;5.57;3.53;;;;;;;;;;6152440;23;20188;-85
2022/02/14 15:57:31;;;;;;;5.80;3.80;;;;;;;;;;6179717;23;20606;-85
2022/02/14 16:00:36;;;;;;;9.00;3.67;;;;;;;;;;6180710;23;20252;-86
2022/02/14 16:03:39;;;;;;;7.60;4.03;;;;;;;;;;6155916;23;20192;-85
2022/02/14 16:06:44;;;;;;;7.40;4.20;;;;;;;;;;6136733;23;20169;-85
2022/02/14 16:09:49;;;;;;;8.60;3.63;;;;;;;;;;6135354;23;20193;-84
2022/02/14 16:12:53;;;;;;;4.27;3.20;;;;;;;;;;6141623;23;20193;-85
2022/02/14 16:15:57;;;;;;;5.90;3.73;;;;;;;;;;6179816;23;20153;-85
2022/02/14 16:19:02;;;;;;;6.57;4.40;;;;;;;;;;6179350;23;20153;-85
2022/02/14 16:22:07;;;;;;;7.97;4.00;;;;;;;;;;6183521;23;20157;-85
2022/02/14 16:25:19;;;;;;;5.07;3.60;;;;;;;;;;6149495;23;20153;-85
2022/02/14 16:28:23;;;;;;;7.23;4.33;;;;;;;;;;6162185;23;20153;-88
2022/02/14 16:31:59;;;;;;;9.20;4.17;;;;;;;;;;6198074;23;20153;-86
2022/02/14 16:35:04;;;;;;;9.10;5.07;;;;;;;;;;6162535;23;20161;-86
2022/02/14 16:38:09;;;;;;;7.97;4.60;;;;;;;;;;6145351;23;20153;-86
2022/02/14 16:41:15;;;;;;;6.23;3.83;;;;;;;;;;6161986;23;20149;-86
2022/02/14 16:44:19;;;;;;;9.07;3.83;;;;;;;;;;6150300;23;20204;-86
2022/02/14 16:47:23;;;;;;;5.43;3.93;;;;;;;;;;6186633;23;20169;-86
2022/02/14 16:50:27;;;;;;;5.40;4.10;;;;;;;;;;6151781;23;20193;-85
2022/02/14 16:53:31;;;;;;;10.07;5.80;;;;;;;;;;6172892;23;20218;-85
2022/02/14 16:56:38;;;;;;;23.73;9.33;;;;;;;;;;6162230;23;20157;-85
2022/02/14 16:59:43;;;;;;;27.47;9.47;;;;;;;;;;6196340;23;20153;-86
2022/02/14 17:02:48;;;;;;;12.77;5.47;;;;;;;;;;6159145;23;20193;-87
2022/02/14 17:05:52;;;;;;;11.97;5.60;;;;;;;;;;6161931;23;20153;-86
2022/02/14 17:08:56;;;;;;;10.37;4.97;;;;;;;;;;6179342;23;20157;-86
2022/02/14 17:12:00;;;;;;;12.40;6.17;;;;;;;;;;6178482;23;20157;-85
2022/02/14 17:15:06;;;;;;;13.87;7.50;;;;;;;;;;6195872;23;20157;-85
2022/02/14 17:18:11;;;;;;;11.63;5.87;;;;;;;;;;6195632;23;20157;-85
2022/02/14 17:21:15;;;;;;;14.10;6.90;;;;;;;;;;6178917;23;20587;-85
2022/02/14 17:24:19;;;;;;;13.63;6.90;;;;;;;;;;6152234;23;20653;-85
2022/02/14 17:27:23;;;;;;;15.13;8.70;;;;;;;;;;6185591;23;20626;-85
2022/02/14 17:30:27;;;;;;;19.87;9.37;;;;;;;;;;6151245;23;20197;-85
2022/02/14 17:46:12;;;;;;;18.30;9.70;;;;;;;;;;6215040;23;20196;-86
2022/02/14 17:58:08;;;;;;;7.30;5.50;;;;;;;;;;6168657;23;20157;-85
2022/02/14 18:06:50;;;;;;;14.17;6.07;;;;;;;;;;6004504;23;20195;-85
2022/02/14 18:10:37;;;;;;;;;;;;;;;;;;;;;
2022/02/14 18:19:29;;;;;;;8.57;5.10;;;;;;;;;;6140370;23;20172;-85
2022/02/14 18:22:38;;;;;;;7.87;5.03;;;;;;;;;;6134586;23;20196;-85
2022/02/14 18:26:11;;;;;;;10.03;4.60;;;;;;;;;;6161491;23;20157;-85
2022/02/14 18:29:18;;;;;;;7.10;4.63;;;;;;;;;;6162426;23;20153;-85
2022/02/14 18:32:22;;;;;;;8.53;4.97;;;;;;;;;;6160550;23;20456;-85
2022/02/14 18:35:57;;;;;;;7.20;4.80;;;;;;;;;;6162169;23;20598;-85
2022/02/14 19:00:34;;;;;;;16.60;8.83;;;;;;;;;;6097683;23;20187;-85
2022/02/14 19:14:33;;;;;;;11.67;6.57;;;;;;;;;;6195712;23;20196;-86
2022/02/14 19:17:44;;;;;;;34.77;16.20;;;;;;;;;;6168394;23;20149;-86
2022/02/14 19:20:48;;;;;;;44.50;24.07;;;;;;;;;;6170292;23;20171;-85
2022/02/14 19:23:53;;;;;;;19.13;10.10;;;;;;;;;;6155660;23;20196;-85
2022/02/14 19:26:57;;;;;;;14.60;7.07;;;;;;;;;;6180465;23;20163;-85
2022/02/14 19:30:03;;;;;;;12.37;7.67;;;;;;;;;;6163646;23;20148;-85
2022/02/14 19:36:30;;;;;;;14.60;9.13;;;;;;;;;;6163872;23;20157;-85
2022/02/14 19:39:34;;;;;;;18.23;8.77;;;;;;;;;;6151397;23;20594;-85
2022/02/14 19:42:38;;;;;;;14.77;8.83;;;;;;;;;;6143606;23;20184;-85
2022/02/14 19:45:42;;;;;;;16.07;9.37;;;;;;;;;;6163686;23;20455;-85
2022/02/14 19:48:47;;;;;;;15.43;9.13;;;;;;;;;;6163191;23;20602;-85